Time;durP1;ratioP1;P1;durP2;ratioP2;P2;SDS_P1;SDS_P2;PMS_P1;PMS_P2;Temp;Humidity;BMP_temperature;BMP_pressure;BME280_temperature;BME280_humidity;BME280_pressure;Samples;Min_cycle;Max_cycle;Signal;HPM_P1;HPM_P2
2022/09/08 00:00:47;;;;;;;2.47;2.27;;;26.50;43.70;;;;;;5014553;28;21028;-89
2022/09/08 00:03:15;;;;;;;3.20;1.80;;;26.50;43.70;;;;;;5031697;28;20542;-90
2022/09/08 00:05:47;;;;;;;4.53;1.73;;;26.50;43.80;;;;;;5044266;28;20947;-89
2022/09/08 00:08:15;;;;;;;3.73;2.23;;;26.60;44.00;;;;;;5015780;28;20986;-90
2022/09/08 00:10:43;;;;;;;2.30;2.10;;;26.40;44.00;;;;;;5012491;28;20441;-89
2022/09/08 00:13:11;;;;;;;3.27;2.30;;;26.20;45.00;;;;;;5062071;28;20445;-89
2022/09/08 00:15:38;;;;;;;2.50;2.30;;;26.10;46.00;;;;;;5015960;28;20498;-89
2022/09/08 00:18:07;;;;;;;2.60;2.10;;;25.70;47.30;;;;;;5028217;28;20512;-89
2022/09/08 00:20:34;;;;;;;2.83;2.27;;;25.40;48.10;;;;;;5044002;28;20964;-88
2022/09/08 00:23:01;;;;;;;4.00;2.30;;;25.40;48.80;;;;;;5032577;28;20454;-90
2022/09/08 00:25:28;;;;;;;2.60;2.40;;;25.60;49.10;;;;;;5024960;28;20548;-88
2022/09/08 00:27:56;;;;;;;4.73;2.30;;;25.70;48.90;;;;;;5064284;28;20568;-89
2022/09/08 00:30:24;;;;;;;6.50;2.80;;;25.70;50.70;;;;;;5046094;28;20441;-88
2022/09/08 00:32:51;;;;;;;4.10;2.60;;;25.80;50.70;;;;;;5018524;28;20556;-91
2022/09/08 00:35:18;;;;;;;4.60;2.83;;;25.70;50.20;;;;;;5054036;28;20457;-88
2022/09/08 00:37:47;;;;;;;6.30;2.53;;;25.50;51.00;;;;;;5052035;28;20486;-90
2022/09/08 00:40:15;;;;;;;4.40;3.03;;;25.20;52.60;;;;;;5050688;28;21329;-86
2022/09/08 00:42:42;;;;;;;13.50;4.20;;;24.90;54.00;;;;;;5034449;28;20439;-88
2022/09/08 00:45:11;;;;;;;3.57;2.90;;;24.80;55.00;;;;;;5067959;28;20458;-88
2022/09/08 00:47:43;;;;;;;3.17;2.97;;;24.40;54.90;;;;;;5068951;28;20498;-88
2022/09/08 00:50:15;;;;;;;4.23;3.37;;;24.10;55.10;;;;;;5076164;28;21276;-88
2022/09/08 00:52:47;;;;;;;3.40;3.10;;;24.40;56.40;;;;;;5035996;28;20971;-87
2022/09/08 00:55:15;;;;;;;6.37;3.80;;;24.60;56.70;;;;;;5071511;28;20468;-87
2022/09/08 00:57:42;;;;;;;4.43;3.70;;;24.70;56.60;;;;;;5049105;28;21130;-88
2022/09/08 01:00:13;;;;;;;5.40;2.80;;;24.70;55.80;;;;;;5016601;28;20445;-86
2022/09/08 01:02:42;;;;;;;4.50;3.10;;;24.70;55.40;;;;;;5052264;28;20452;-91
2022/09/08 01:05:12;;;;;;;4.27;3.63;;;24.80;56.30;;;;;;5049632;28;20449;-87
2022/09/08 01:13:40;;;;;;;5.43;3.60;;;24.90;56.50;;;;;;5040313;28;20987;-90
2022/09/08 01:16:08;;;;;;;7.20;3.90;;;24.30;57.20;;;;;;5046651;28;20456;-88
2022/09/08 01:18:37;;;;;;;7.77;4.03;;;24.10;57.60;;;;;;5036483;28;20464;-87
2022/09/08 01:21:16;;;;;;;4.73;3.57;;;24.20;57.60;;;;;;5049534;28;20456;-88
2022/09/08 01:24:16;;;;;;;5.20;3.90;;;24.20;57.50;;;;;;5033053;28;20452;-87
2022/09/08 01:26:50;;;;;;;8.33;3.70;;;24.00;58.00;;;;;;5064561;28;21002;-87
2022/09/08 01:29:21;;;;;;;4.20;3.80;;;24.10;58.20;;;;;;5030601;28;20538;-88
2022/09/08 01:31:51;;;;;;;6.63;3.70;;;24.30;58.00;;;;;;5031434;28;20437;-88
2022/09/08 01:34:18;;;;;;;7.00;3.87;;;24.40;58.50;;;;;;5029985;28;20459;-87
2022/09/08 01:36:45;;;;;;;4.70;4.10;;;24.60;58.40;;;;;;5070063;28;20473;-89
2022/09/08 01:39:12;;;;;;;4.60;4.20;;;24.70;58.30;;;;;;5033285;28;20604;-89
2022/09/08 01:41:38;;;;;;;5.03;4.07;;;24.70;57.90;;;;;;5033839;28;20882;-88
2022/09/08 01:44:06;;;;;;;5.27;4.00;;;24.70;58.10;;;;;;5063581;28;20464;-87
2022/09/08 01:46:34;;;;;;;4.30;3.40;;;24.70;58.10;;;;;;5050420;28;20447;-87
2022/09/08 01:49:01;;;;;;;9.80;4.03;;;24.70;57.60;;;;;;5032130;28;20480;-88
2022/09/08 01:51:28;;;;;;;4.83;4.10;;;24.70;57.10;;;;;;5064504;28;20494;-87
2022/09/08 01:53:54;;;;;;;9.10;3.77;;;24.70;58.00;;;;;;5033240;28;20863;-87
2022/09/08 01:56:21;;;;;;;6.83;4.10;;;24.70;57.70;;;;;;5044163;28;20455;-88
2022/09/08 01:58:48;;;;;;;5.60;4.13;;;24.80;57.80;;;;;;5038780;28;20469;-87
2022/09/08 02:01:15;;;;;;;7.47;4.30;;;24.80;57.20;;;;;;5031604;28;21005;-88
2022/09/08 02:03:44;;;;;;;6.60;4.40;;;24.80;57.20;;;;;;5045459;28;20471;-89
2022/09/08 02:06:11;;;;;;;4.80;4.40;;;24.80;57.60;;;;;;5060729;28;20473;-87
2022/09/08 02:08:38;;;;;;;6.03;4.50;;;24.80;57.20;;;;;;5061544;28;20496;-87
2022/09/08 02:11:06;;;;;;;6.00;4.73;;;24.80;57.80;;;;;;5026866;28;20448;-87
2022/09/08 02:13:33;;;;;;;5.10;4.70;;;24.80;58.10;;;;;;5058815;28;20459;-88
2022/09/08 02:16:02;;;;;;;11.60;4.57;;;24.80;58.20;;;;;;5064172;28;20467;-87
2022/09/08 02:18:32;;;;;;;5.17;4.67;;;24.70;58.20;;;;;;5047040;28;20575;-87
2022/09/08 02:21:09;;;;;;;4.30;3.87;;;24.60;58.50;;;;;;5032379;28;20455;-89
2022/09/08 02:23:37;;;;;;;8.50;5.13;;;24.70;58.30;;;;;;5048172;28;20444;-87
2022/09/08 02:26:04;;;;;;;6.40;4.10;;;24.60;57.90;;;;;;5029030;28;20502;-87
2022/09/08 02:28:31;;;;;;;7.40;4.60;;;24.50;58.20;;;;;;5062029;28;20496;-86
2022/09/08 02:31:00;;;;;;;5.93;3.97;;;24.20;58.00;;;;;;5047430;28;20453;-87
2022/09/08 02:33:27;;;;;;;7.10;5.40;;;24.30;59.20;;;;;;5042328;28;21224;-88
2022/09/08 02:35:54;;;;;;;11.90;4.40;;;24.40;59.00;;;;;;5065620;28;20452;-87
2022/09/08 02:38:23;;;;;;;8.60;4.80;;;24.50;58.90;;;;;;5016691;28;20488;-87
2022/09/08 02:40:51;;;;;;;5.43;4.93;;;24.40;59.20;;;;;;5052413;28;20452;-87
2022/09/08 02:43:18;;;;;;;4.43;4.03;;;24.50;58.90;;;;;;5044983;28;20461;-88
2022/09/08 02:45:46;;;;;;;5.10;4.47;;;24.50;58.70;;;;;;5017459;28;20445;-84
2022/09/08 02:48:14;;;;;;;6.40;4.33;;;24.50;58.60;;;;;;5048198;28;20472;-86
2022/09/08 02:50:40;;;;;;;8.23;4.60;;;24.60;57.80;;;;;;5045829;28;20448;-87
2022/09/08 02:53:08;;;;;;;5.10;4.60;;;24.60;58.00;;;;;;5029899;28;20528;-86
2022/09/08 02:55:38;;;;;;;5.40;4.90;;;24.60;58.40;;;;;;5025497;28;20453;-87
2022/09/08 02:58:07;;;;;;;6.10;5.13;;;24.60;58.70;;;;;;5063267;28;20481;-87
2022/09/08 03:00:35;;;;;;;5.70;5.23;;;24.60;58.90;;;;;;5067157;28;20461;-87
2022/09/08 03:03:02;;;;;;;5.40;4.57;;;24.60;58.60;;;;;;5060291;28;20482;-87
2022/09/08 03:05:30;;;;;;;6.97;4.30;;;24.50;58.50;;;;;;5062027;28;20438;-88
2022/09/08 03:07:57;;;;;;;8.90;4.50;;;24.50;58.70;;;;;;5046275;28;21041;-89
2022/09/08 03:10:24;;;;;;;5.00;4.50;;;24.50;58.80;;;;;;5045442;28;20464;-87
2022/09/08 03:12:54;;;;;;;6.47;4.93;;;24.50;58.80;;;;;;5064800;28;20503;-88
2022/09/08 03:15:23;;;;;;;6.03;5.00;;;24.50;58.40;;;;;;5030393;28;20451;-87
2022/09/08 03:17:50;;;;;;;7.87;4.70;;;24.50;58.00;;;;;;5041313;28;20484;-88
2022/09/08 03:20:17;;;;;;;6.93;4.77;;;24.50;57.90;;;;;;5028680;28;20992;-87
2022/09/08 03:22:44;;;;;;;8.20;4.50;;;24.50;58.10;;;;;;5046749;28;20836;-86
2022/09/08 03:25:11;;;;;;;9.93;5.20;;;24.50;58.30;;;;;;5029592;28;20971;-87
2022/09/08 03:27:39;;;;;;;6.30;5.27;;;24.30;58.20;;;;;;5047280;28;21130;-87
2022/09/08 03:30:10;;;;;;;4.80;4.40;;;24.30;58.70;;;;;;5043430;28;20975;-87
2022/09/08 03:32:39;;;;;;;5.83;4.47;;;24.30;58.60;;;;;;5037433;28;20445;-86
2022/09/08 03:35:08;;;;;;;7.17;5.03;;;24.30;58.00;;;;;;5062268;28;21160;-88
2022/09/08 03:37:36;;;;;;;7.03;5.63;;;24.30;58.60;;;;;;5064723;28;21096;-86
2022/09/08 03:40:05;;;;;;;9.07;6.00;;;24.30;58.90;;;;;;5064554;28;20452;-86
2022/09/08 03:42:34;;;;;;;6.00;5.40;;;24.30;59.20;;;;;;5020580;28;20470;-87
2022/09/08 03:45:01;;;;;;;9.07;5.20;;;24.30;59.10;;;;;;5031149;28;20522;-86
2022/09/08 03:47:29;;;;;;;6.37;5.00;;;24.30;59.00;;;;;;5029765;28;20461;-87
2022/09/08 03:49:56;;;;;;;6.20;4.50;;;24.30;59.00;;;;;;5046322;28;20542;-87
2022/09/08 03:52:23;;;;;;;5.83;5.23;;;24.30;58.90;;;;;;5047541;28;21205;-87
2022/09/08 03:54:51;;;;;;;7.90;5.60;;;24.30;58.60;;;;;;5060217;28;20457;-87
2022/09/08 03:57:21;;;;;;;5.53;4.53;;;24.30;58.90;;;;;;5047634;28;20542;-87
2022/09/08 03:59:49;;;;;;;4.67;4.23;;;24.30;58.70;;;;;;5043089;28;20440;-86
2022/09/08 04:02:17;;;;;;;5.50;5.03;;;24.30;58.80;;;;;;5060038;28;20451;-86
2022/09/08 04:04:49;;;;;;;6.00;5.00;;;24.30;59.00;;;;;;5062236;28;20452;-88
2022/09/08 04:07:16;;;;;;;4.40;4.10;;;24.30;59.00;;;;;;5045564;28;20480;-86
2022/09/08 04:09:43;;;;;;;4.17;3.87;;;24.30;59.20;;;;;;5051343;28;20451;-88
2022/09/08 04:12:11;;;;;;;8.77;4.10;;;24.30;59.10;;;;;;5064331;28;20965;-86
2022/09/08 04:14:39;;;;;;;5.83;4.33;;;24.30;59.00;;;;;;5065197;28;20456;-87
2022/09/08 04:17:06;;;;;;;6.10;4.73;;;24.20;58.80;;;;;;5066518;28;20478;-87
2022/09/08 04:19:34;;;;;;;7.90;4.80;;;24.10;59.40;;;;;;5036497;28;20461;-89
2022/09/08 04:22:02;;;;;;;6.10;4.67;;;23.90;60.00;;;;;;5034988;28;20837;-86
2022/09/08 04:24:29;;;;;;;7.30;5.53;;;23.90;60.00;;;;;;5067957;28;20471;-86
2022/09/08 04:26:56;;;;;;;7.50;5.00;;;23.90;60.20;;;;;;5047381;28;21149;-86
2022/09/08 04:29:23;;;;;;;6.73;5.50;;;24.00;60.10;;;;;;5014911;28;20510;-87
2022/09/08 04:31:50;;;;;;;7.43;5.40;;;24.00;60.00;;;;;;5065297;28;20980;-87
2022/09/08 04:34:17;;;;;;;5.83;5.00;;;24.10;59.80;;;;;;5048228;28;20531;-86
2022/09/08 04:36:45;;;;;;;6.57;4.87;;;24.10;59.90;;;;;;5049600;28;20452;-87
2022/09/08 04:39:16;;;;;;;5.40;4.90;;;24.10;59.70;;;;;;5067895;28;20473;-86
2022/09/08 04:41:43;;;;;;;7.00;5.20;;;24.10;59.60;;;;;;5033462;28;20450;-87
2022/09/08 04:44:11;;;;;;;4.93;4.53;;;24.10;59.70;;;;;;5045017;28;20543;-88
2022/09/08 04:46:38;;;;;;;5.50;4.93;;;24.10;59.70;;;;;;5044122;28;20898;-86
2022/09/08 04:49:05;;;;;;;6.23;4.50;;;24.10;59.60;;;;;;5052879;28;20471;-88
2022/09/08 04:51:33;;;;;;;6.30;4.67;;;24.10;59.60;;;;;;5046971;28;20443;-86
2022/09/08 04:54:01;;;;;;;6.73;5.03;;;24.10;59.30;;;;;;5044194;28;20454;-87
2022/09/08 04:56:30;;;;;;;6.40;4.50;;;24.10;59.30;;;;;;5045015;28;20877;-86
2022/09/08 04:59:00;;;;;;;6.67;4.20;;;24.10;59.70;;;;;;5025600;28;20476;-85
2022/09/08 05:01:29;;;;;;;6.53;4.13;;;23.90;59.70;;;;;;5055681;28;20573;-85
2022/09/08 05:04:00;;;;;;;6.80;6.20;;;23.90;59.40;;;;;;5064104;28;20447;-88
2022/09/08 05:06:28;;;;;;;4.20;3.80;;;23.90;59.70;;;;;;5028088;28;20450;-86
2022/09/08 05:08:56;;;;;;;4.80;4.40;;;23.80;59.30;;;;;;5058537;28;21019;-87
2022/09/08 05:11:25;;;;;;;5.53;4.33;;;23.80;59.70;;;;;;5060454;28;20452;-88
2022/09/08 05:13:53;;;;;;;4.47;4.07;;;23.90;59.50;;;;;;5060373;28;20456;-87
2022/09/08 05:16:24;;;;;;;6.13;4.03;;;23.90;59.40;;;;;;5024630;28;20517;-86
2022/09/08 05:18:53;;;;;;;5.33;4.40;;;23.90;59.50;;;;;;5046159;28;20475;-90
2022/09/08 05:21:21;;;;;;;4.97;4.53;;;23.70;60.10;;;;;;5024581;28;20464;-86
2022/09/08 05:23:49;;;;;;;4.53;3.93;;;23.60;60.50;;;;;;5024924;28;20958;-85
2022/09/08 05:26:19;;;;;;;5.57;5.07;;;23.50;60.30;;;;;;5022949;28;20563;-87
2022/09/08 05:28:47;;;;;;;4.50;4.10;;;23.50;60.50;;;;;;5047150;28;20477;-84
2022/09/08 05:31:17;;;;;;;5.07;4.60;;;23.40;60.60;;;;;;5051233;28;20444;-87
2022/09/08 05:33:44;;;;;;;4.40;4.00;;;23.00;62.00;;;;;;5045356;28;20959;-87
2022/09/08 05:36:13;;;;;;;6.63;5.10;;;22.70;62.90;;;;;;5045340;28;20441;-87
2022/09/08 05:38:40;;;;;;;8.83;4.27;;;22.70;63.40;;;;;;5055878;28;20565;-85
2022/09/08 05:41:09;;;;;;;4.50;4.10;;;22.70;63.10;;;;;;5064497;28;20468;-86
2022/09/08 05:43:36;;;;;;;4.70;3.83;;;22.80;63.10;;;;;;5065130;28;20459;-86
2022/09/08 05:46:03;;;;;;;5.50;4.30;;;22.90;63.10;;;;;;5028459;28;20464;-86
2022/09/08 05:48:32;;;;;;;5.00;3.97;;;23.10;62.50;;;;;;5045492;28;20542;-87
2022/09/08 05:50:59;;;;;;;4.90;4.40;;;23.00;62.30;;;;;;5043847;28;20978;-85
2022/09/08 05:53:27;;;;;;;4.50;3.80;;;23.10;62.20;;;;;;5060471;28;20998;-86
2022/09/08 05:55:58;;;;;;;4.80;3.80;;;23.10;61.70;;;;;;5059510;28;20452;-86
2022/09/08 05:58:25;;;;;;;4.57;3.50;;;23.30;61.70;;;;;;5058208;28;20485;-86
2022/09/08 06:01:01;;;;;;;4.33;3.87;;;23.20;61.30;;;;;;5035895;28;20444;-85
2022/09/08 06:03:28;;;;;;;4.17;3.83;;;23.30;61.60;;;;;;5044880;28;20440;-87
2022/09/08 06:06:01;;;;;;;4.47;4.10;;;23.40;61.70;;;;;;5061791;28;21046;-84
2022/09/08 06:08:28;;;;;;;4.40;3.80;;;23.40;61.50;;;;;;5042917;28;21022;-84
2022/09/08 06:10:55;;;;;;;4.70;4.13;;;23.50;61.10;;;;;;5026728;28;20452;-86
2022/09/08 06:13:22;;;;;;;6.40;3.90;;;23.50;60.80;;;;;;5043430;28;20449;-85
2022/09/08 06:15:50;;;;;;;4.43;3.40;;;23.50;60.80;;;;;;5060109;28;20534;-87
2022/09/08 06:18:17;;;;;;;3.80;3.33;;;23.60;60.30;;;;;;5058790;28;20956;-83
2022/09/08 06:20:44;;;;;;;3.90;3.30;;;23.60;60.20;;;;;;5034448;28;20448;-86
2022/09/08 06:23:13;;;;;;;6.27;3.27;;;23.70;60.50;;;;;;5062386;28;20444;-87
2022/09/08 06:25:43;;;;;;;5.83;3.27;;;23.50;60.60;;;;;;5061454;28;20498;-87
2022/09/08 06:28:23;;;;;;;4.53;2.87;;;23.60;60.30;;;;;;5059505;28;20479;-85
2022/09/08 06:30:51;;;;;;;4.30;3.00;;;23.60;60.30;;;;;;5027401;28;21133;-85
2022/09/08 06:33:28;;;;;;;4.50;3.57;;;23.60;60.10;;;;;;5027224;28;20455;-83
2022/09/08 06:36:00;;;;;;;3.40;3.10;;;23.60;60.60;;;;;;5048037;28;20446;-85
2022/09/08 06:38:35;;;;;;;3.13;2.93;;;23.40;60.10;;;;;;5062485;28;20550;-88
2022/09/08 06:41:10;;;;;;;8.90;4.63;;;23.40;60.20;;;;;;5064230;28;20452;-86
2022/09/08 06:43:41;;;;;;;3.27;3.07;;;23.40;60.10;;;;;;5063960;28;20445;-85
2022/09/08 06:46:17;;;;;;;4.90;2.90;;;23.40;60.80;;;;;;5042550;28;20841;-86
2022/09/08 06:48:44;;;;;;;3.30;3.00;;;23.30;61.20;;;;;;5060236;28;20558;-84
2022/09/08 06:51:23;;;;;;;5.50;3.20;;;23.30;60.60;;;;;;5062319;28;20448;-84
2022/09/08 06:54:02;;;;;;;6.77;3.93;;;23.40;60.50;;;;;;5062149;28;20455;-84
2022/09/08 06:56:40;;;;;;;3.27;2.80;;;23.20;61.10;;;;;;5041614;28;20475;-84
2022/09/08 06:59:09;;;;;;;2.97;2.77;;;23.30;60.70;;;;;;5044082;28;20530;-85
2022/09/08 07:01:43;;;;;;;3.00;2.80;;;23.20;60.50;;;;;;5043255;28;20443;-85
2022/09/08 07:04:22;;;;;;;7.17;3.13;;;23.30;61.30;;;;;;5042301;28;20820;-85
2022/09/08 07:06:56;;;;;;;5.70;3.40;;;23.30;61.30;;;;;;5039143;28;21065;-85
2022/09/08 07:09:34;;;;;;;5.23;3.23;;;23.30;61.40;;;;;;5042622;28;20543;-87
2022/09/08 07:12:14;;;;;;;3.97;3.57;;;23.40;61.60;;;;;;5031742;28;20510;-85
2022/09/08 07:15:03;;;;;;;3.67;3.37;;;23.50;61.80;;;;;;5028256;28;21033;-84
2022/09/08 07:17:34;;;;;;;4.70;3.40;;;23.50;61.50;;;;;;5025284;28;20484;-84
2022/09/08 07:20:04;;;;;;;3.27;2.97;;;23.50;61.60;;;;;;5062177;28;20453;-84
2022/09/08 07:22:38;;;;;;;4.17;3.43;;;23.40;61.30;;;;;;5016629;28;21066;-84
2022/09/08 07:25:19;;;;;;;4.27;3.87;;;23.50;61.30;;;;;;5058871;28;20974;-86
2022/09/08 07:27:49;;;;;;;4.33;3.17;;;23.50;61.60;;;;;;5065566;28;20465;-87
2022/09/08 07:30:18;;;;;;;3.63;3.33;;;23.30;62.40;;;;;;5027681;28;20477;-84
2022/09/08 07:32:48;;;;;;;3.33;3.03;;;23.30;62.60;;;;;;5064501;28;20854;-85
2022/09/08 07:35:25;;;;;;;4.33;3.83;;;23.50;62.60;;;;;;5046117;28;20448;-85
2022/09/08 07:37:57;;;;;;;5.60;4.33;;;23.50;62.10;;;;;;5048380;28;20467;-87
2022/09/08 07:40:38;;;;;;;6.00;3.13;;;23.60;62.80;;;;;;5031786;28;20445;-85
2022/09/08 07:43:10;;;;;;;3.70;3.40;;;23.70;62.10;;;;;;5045686;28;20437;-86
2022/09/08 07:45:40;;;;;;;3.53;3.23;;;23.70;61.80;;;;;;5059384;28;20941;-86
2022/09/08 07:48:20;;;;;;;3.83;3.37;;;23.70;61.90;;;;;;5065164;28;20460;-84
2022/09/08 07:50:55;;;;;;;3.87;3.00;;;23.60;61.80;;;;;;5065990;28;20948;-85
2022/09/08 07:53:44;;;;;;;3.20;2.90;;;23.40;62.50;;;;;;5046376;28;20601;-84
2022/09/08 07:56:15;;;;;;;4.00;2.50;;;23.50;62.90;;;;;;5064330;28;20460;-85
2022/09/08 07:58:51;;;;;;;3.10;2.50;;;23.50;62.00;;;;;;5031881;28;20535;-84
2022/09/08 08:01:30;;;;;;;2.13;1.87;;;23.50;62.00;;;;;;5019271;28;20484;-85
2022/09/08 08:04:12;;;;;;;4.33;2.07;;;23.40;61.50;;;;;;5011453;28;20451;-87
2022/09/08 08:06:45;;;;;;;2.10;1.87;;;23.10;62.50;;;;;;5063447;28;20472;-84
2022/09/08 08:09:22;;;;;;;3.53;2.37;;;22.80;63.90;;;;;;5063771;28;20475;-86
2022/09/08 08:11:57;;;;;;;2.00;1.90;;;22.70;64.60;;;;;;5059789;28;20448;-85
2022/09/08 08:14:30;;;;;;;1.80;1.70;;;22.70;64.20;;;;;;5046653;28;20464;-85
2022/09/08 08:17:08;;;;;;;2.10;1.90;;;22.60;64.10;;;;;;5026473;28;20455;-83
2022/09/08 08:19:53;;;;;;;2.17;1.97;;;22.70;64.20;;;;;;5060647;28;20550;-84
2022/09/08 08:22:27;;;;;;;2.37;2.10;;;22.80;64.10;;;;;;5049245;28;20863;-85
2022/09/08 08:25:05;;;;;;;2.40;2.20;;;22.60;64.20;;;;;;5065613;28;20461;-83
2022/09/08 08:27:42;;;;;;;2.43;2.23;;;22.60;64.50;;;;;;5034649;28;20479;-85
2022/09/08 08:30:18;;;;;;;2.70;2.50;;;22.50;64.10;;;;;;5030860;28;20440;-86
2022/09/08 08:32:52;;;;;;;4.17;2.43;;;22.50;64.50;;;;;;5032298;28;20453;-85
2022/09/08 08:35:25;;;;;;;2.40;2.20;;;22.50;64.00;;;;;;5064331;28;20473;-88
2022/09/08 08:37:54;;;;;;;2.47;2.27;;;22.50;64.00;;;;;;5041590;28;20484;-84
2022/09/08 08:40:46;;;;;;;2.57;2.37;;;22.50;64.90;;;;;;5062880;28;20479;-83
2022/09/08 08:44:02;;;;;;;2.27;2.07;;;22.40;64.30;;;;;;5057072;28;20449;-87
2022/09/08 08:46:50;;;;;;;2.13;2.03;;;22.20;64.70;;;;;;5059419;28;20450;-86
2022/09/08 08:49:38;;;;;;;2.53;2.33;;;22.10;64.50;;;;;;5062298;28;20479;-84
2022/09/08 08:52:25;;;;;;;2.23;1.80;;;22.30;64.20;;;;;;5045116;28;20472;-85
2022/09/08 08:55:09;;;;;;;3.23;2.17;;;22.10;62.30;;;;;;5064876;28;20455;-85
2022/09/08 08:57:52;;;;;;;2.47;2.27;;;22.00;64.30;;;;;;5045740;28;20471;-84
2022/09/08 09:00:21;;;;;;;4.73;2.03;;;22.20;63.90;;;;;;5063318;28;20966;-83
2022/09/08 09:03:29;;;;;;;1.87;1.77;;;22.40;63.60;;;;;;5044072;28;21110;-85
2022/09/08 09:06:18;;;;;;;1.70;1.60;;;22.50;63.60;;;;;;4943898;28;20457;-85
2022/09/08 09:09:00;;;;;;;1.60;1.50;;;22.60;61.90;;;;;;5015646;28;20468;-84
2022/09/08 09:11:41;;;;;;;2.17;1.97;;;22.90;61.80;;;;;;5065108;28;20437;-84
2022/09/08 09:14:20;;;;;;;1.70;1.60;;;23.10;61.30;;;;;;5060889;28;20450;-85
2022/09/08 09:17:04;;;;;;;1.73;1.60;;;23.20;62.20;;;;;;5044995;28;20444;-86
2022/09/08 09:19:57;;;;;;;2.70;1.93;;;23.20;60.30;;;;;;5043796;28;20474;-84
2022/09/08 09:22:29;;;;;;;1.83;1.73;;;23.30;60.60;;;;;;5028015;28;20452;-84
2022/09/08 09:25:13;;;;;;;2.43;1.50;;;23.20;59.70;;;;;;5043220;28;20461;-85
2022/09/08 09:27:45;;;;;;;2.20;1.97;;;23.30;59.30;;;;;;5043901;28;20460;-86
2022/09/08 09:30:22;;;;;;;1.80;1.70;;;23.40;59.60;;;;;;5058929;28;20936;-87
2022/09/08 09:33:19;;;;;;;4.23;1.50;;;23.40;58.50;;;;;;5065345;28;20436;-87
2022/09/08 09:36:05;;;;;;;2.50;1.90;;;23.00;57.80;;;;;;5063721;28;20948;-86
2022/09/08 09:39:02;;;;;;;2.03;1.93;;;22.90;58.50;;;;;;5047882;28;20471;-86
2022/09/08 09:41:56;;;;;;;2.47;1.70;;;23.00;59.10;;;;;;5031971;28;20443;-86
2022/09/08 09:44:40;;;;;;;1.60;1.50;;;22.90;58.70;;;;;;5030873;28;20506;-85
2022/09/08 09:47:27;;;;;;;1.70;1.60;;;23.10;58.40;;;;;;5027271;28;20457;-87
2022/09/08 09:50:25;;;;;;;1.70;1.60;;;23.20;57.50;;;;;;5045389;28;20478;-86
2022/09/08 09:53:03;;;;;;;2.03;1.83;;;23.20;57.30;;;;;;5024215;28;20456;-88
2022/09/08 09:56:06;;;;;;;2.37;1.97;;;23.00;56.70;;;;;;5061756;28;20479;-86
2022/09/08 09:59:02;;;;;;;1.80;1.70;;;23.10;57.20;;;;;;5040977;28;20484;-88
2022/09/08 10:01:58;;;;;;;3.83;1.80;;;23.00;57.60;;;;;;5061751;28;21023;-86
2022/09/08 10:04:44;;;;;;;1.53;1.43;;;23.20;57.80;;;;;;5043774;28;20456;-86
2022/09/08 10:07:34;;;;;;;1.70;1.60;;;23.30;58.00;;;;;;5061651;28;20931;-88
2022/09/08 10:10:20;;;;;;;1.50;1.40;;;23.40;56.70;;;;;;5042743;28;20475;-86
2022/09/08 10:13:16;;;;;;;2.03;1.90;;;23.30;56.70;;;;;;5045835;28;20452;-86
2022/09/08 10:16:14;;;;;;;1.80;1.53;;;23.40;57.50;;;;;;5043047;28;21011;-87
2022/09/08 10:19:20;;;;;;;1.63;1.53;;;23.60;56.70;;;;;;5041054;28;20895;-87
2022/09/08 10:22:29;;;;;;;1.50;1.40;;;23.70;57.00;;;;;;5043070;28;21012;-88
2022/09/08 10:25:27;;;;;;;2.03;1.60;;;23.70;55.20;;;;;;5059402;28;20982;-89
2022/09/08 10:28:26;;;;;;;1.80;1.70;;;23.70;55.50;;;;;;5041386;28;20475;-90
2022/09/08 10:31:21;;;;;;;1.93;1.67;;;23.60;54.70;;;;;;5044517;28;20460;-87
2022/09/08 10:34:06;;;;;;;2.83;1.93;;;23.50;54.40;;;;;;5055273;28;20956;-84
2022/09/08 10:36:57;;;;;;;1.80;1.70;;;23.50;55.20;;;;;;5040507;28;20448;-87
2022/09/08 10:39:43;;;;;;;3.07;1.80;;;23.70;55.20;;;;;;5060932;28;20772;-87
2022/09/08 10:42:43;;;;;;;1.60;1.50;;;23.90;54.80;;;;;;5040696;28;20448;-87
2022/09/08 10:45:20;;;;;;;1.73;1.63;;;23.80;54.30;;;;;;5057543;28;20839;-87
2022/09/08 10:48:17;;;;;;;1.60;1.50;;;23.50;54.10;;;;;;5043468;28;20475;-85
2022/09/08 10:50:51;;;;;;;1.57;1.47;;;23.50;54.60;;;;;;5057921;28;20473;-87
2022/09/08 10:53:46;;;;;;;1.57;1.40;;;23.60;54.80;;;;;;5063112;28;20944;-89
2022/09/08 10:56:14;;;;;;;1.70;1.60;;;23.80;54.10;;;;;;5061315;28;20472;-87
2022/09/08 10:59:26;;;;;;;1.50;1.40;;;23.90;53.50;;;;;;5050035;28;20472;-87
2022/09/08 11:02:13;;;;;;;1.97;1.50;;;24.30;53.50;;;;;;5045873;28;20452;-87
2022/09/08 11:05:16;;;;;;;2.33;1.57;;;24.60;52.60;;;;;;5063569;28;20448;-88
2022/09/08 11:08:20;;;;;;;1.40;1.30;;;24.90;51.00;;;;;;5030976;28;20476;-88
2022/09/08 11:11:06;;;;;;;1.50;1.40;;;24.70;51.60;;;;;;4990006;28;20445;-88
2022/09/08 11:13:36;;;;;;;2.70;1.50;;;24.50;51.50;;;;;;5050179;28;20448;-87
2022/09/08 11:16:45;;;;;;;2.17;1.60;;;24.40;51.40;;;;;;5027837;28;20456;-89
2022/09/08 11:19:35;;;;;;;1.27;1.17;;;24.40;51.80;;;;;;5055381;28;20467;-88
2022/09/08 11:22:50;;;;;;;1.70;1.50;;;24.50;51.90;;;;;;5047028;28;20441;-88
2022/09/08 11:25:37;;;;;;;1.50;1.40;;;24.00;52.30;;;;;;5038173;28;21022;-87
2022/09/08 11:28:25;;;;;;;1.57;1.40;;;23.90;53.00;;;;;;5033041;28;20464;-88
2022/09/08 11:31:01;;;;;;;1.60;1.30;;;23.80;51.80;;;;;;5034278;28;20783;-86
2022/09/08 11:33:54;;;;;;;1.40;1.30;;;23.60;52.20;;;;;;5036703;28;20453;-87
2022/09/08 11:36:42;;;;;;;1.93;1.50;;;23.90;53.00;;;;;;5030533;28;20667;-89
2022/09/08 11:39:26;;;;;;;1.30;1.20;;;24.40;51.60;;;;;;5067812;28;20503;-88
2022/09/08 11:42:24;;;;;;;1.30;1.20;;;24.80;50.70;;;;;;5036257;28;21003;-87
2022/09/08 11:45:03;;;;;;;5.30;1.30;;;25.40;50.20;;;;;;5014655;28;20481;-88
2022/09/08 11:48:04;;;;;;;1.43;1.33;;;25.50;48.00;;;;;;5047244;28;20980;-87
2022/09/08 11:50:46;;;;;;;1.70;1.20;;;25.30;47.50;;;;;;5068020;28;20850;-86
2022/09/08 11:53:48;;;;;;;1.20;1.10;;;25.30;48.50;;;;;;5071851;28;20931;-87
2022/09/08 11:56:35;;;;;;;1.40;1.30;;;25.30;48.60;;;;;;5048962;28;20452;-87
2022/09/08 11:59:23;;;;;;;1.30;1.20;;;25.20;48.00;;;;;;5007693;28;20543;-89
2022/09/08 12:02:04;;;;;;;1.30;1.20;;;24.80;48.30;;;;;;5065713;28;20445;-88
2022/09/08 12:04:50;;;;;;;1.37;1.27;;;24.70;47.60;;;;;;5054009;28;20835;-90
2022/09/08 12:07:50;;;;;;;1.30;1.20;;;24.60;47.30;;;;;;5032822;28;20449;-88
2022/09/08 12:10:53;;;;;;;1.60;1.50;;;25.00;46.80;;;;;;5030864;28;20449;-87
2022/09/08 12:13:29;;;;;;;1.20;1.07;;;25.60;44.90;;;;;;5011593;28;20453;-88
2022/09/08 12:16:41;;;;;;;1.30;1.10;;;25.70;45.40;;;;;;5000924;28;20467;-89
2022/09/08 12:19:35;;;;;;;1.60;1.30;;;25.50;46.20;;;;;;4995589;28;20883;-88
2022/09/08 12:22:20;;;;;;;1.23;1.13;;;25.50;45.20;;;;;;5011577;28;20443;-88
2022/09/08 12:25:03;;;;;;;1.20;1.10;;;25.70;44.00;;;;;;5062425;28;20447;-92
2022/09/08 12:27:43;;;;;;;2.63;1.30;;;25.90;44.30;;;;;;5047721;28;20491;-92
2022/09/08 12:30:16;;;;;;;1.20;1.10;;;26.30;45.10;;;;;;5064364;28;20800;-88
2022/09/08 12:33:01;;;;;;;4.40;1.10;;;26.10;42.60;;;;;;5035775;28;20805;-93
2022/09/08 12:35:33;;;;;;;1.10;0.93;;;26.10;43.60;;;;;;5053509;28;21009;-88
2022/09/08 12:38:33;;;;;;;1.30;1.07;;;26.10;43.70;;;;;;5069616;28;20883;-89
2022/09/08 12:41:23;;;;;;;1.50;1.00;;;25.80;44.30;;;;;;5042558;28;20505;-90
2022/09/08 12:43:59;;;;;;;1.10;1.00;;;25.70;44.90;;;;;;5032392;28;20449;-90
2022/09/08 12:46:45;;;;;;;1.47;1.20;;;25.40;45.80;;;;;;5006818;28;20437;-91
2022/09/08 12:49:35;;;;;;;1.50;1.10;;;25.30;46.30;;;;;;5066666;28;20839;-89
2022/09/08 12:52:03;;;;;;;1.60;1.37;;;24.90;46.50;;;;;;5035684;28;20465;-89
2022/09/08 12:54:45;;;;;;;1.30;1.20;;;24.80;46.50;;;;;;5059391;28;20476;-88
2022/09/08 12:57:39;;;;;;;1.63;1.10;;;25.30;46.90;;;;;;5071682;28;20547;-90
2022/09/08 13:00:12;;;;;;;2.43;1.40;;;25.50;45.90;;;;;;5043027;28;20599;-89
2022/09/08 13:03:16;;;;;;;1.40;1.10;;;26.00;45.90;;;;;;5016752;28;20456;-89
2022/09/08 13:06:07;;;;;;;1.30;1.20;;;26.50;43.90;;;;;;5067438;28;20498;-89
2022/09/08 13:08:49;;;;;;;1.20;1.10;;;26.80;43.60;;;;;;5026709;28;20480;-88
2022/09/08 13:11:32;;;;;;;1.37;1.10;;;26.60;42.40;;;;;;5072257;28;20963;-88
2022/09/08 13:14:15;;;;;;;4.43;1.03;;;26.30;42.30;;;;;;5051771;28;20911;-90
2022/09/08 13:16:53;;;;;;;1.10;1.00;;;26.00;42.30;;;;;;5031086;28;20501;-87
2022/09/08 13:19:28;;;;;;;1.20;0.90;;;26.00;43.40;;;;;;5034779;28;20821;-89
2022/09/08 13:22:14;;;;;;;1.83;1.00;;;26.00;42.20;;;;;;5025026;28;20467;-94
2022/09/08 13:24:54;;;;;;;1.20;1.00;;;26.20;42.30;;;;;;5067489;28;20436;-88
2022/09/08 13:27:34;;;;;;;1.00;0.90;;;26.50;42.30;;;;;;5069934;28;20527;-88
2022/09/08 13:30:15;;;;;;;1.57;0.80;;;26.90;41.90;;;;;;5055176;28;20451;-89
2022/09/08 13:33:26;;;;;;;1.20;1.10;;;27.10;41.60;;;;;;5075358;28;20448;-89
2022/09/08 13:36:15;;;;;;;2.00;0.93;;;27.40;41.50;;;;;;5019088;28;20472;-89
2022/09/08 13:39:00;;;;;;;0.90;0.80;;;27.80;39.70;;;;;;5051925;28;20526;-89